Terminal Aerodrome Forecast
Issued by NWS Northern Indiana

Home | Current Version | Previous Version | Text Only | Print | Product List | Glossary On
Versions: 1 2 3 4 5 6 7 8 9 10 11 12 13 14 15 16 17 18
926
FTUS43 KIWX 192336
TAFFWA
TAF
KFWA 192336Z 2000/2024 10007KT 5SM BR VCSH OVC060
     FM200300 09008KT 4SM -RA BR OVC015
     FM201300 12006KT 2SM BR OVC003
     FM202200 22006KT 4SM BR OVC008=

USA.gov is the U.S. government's official web portal to all federal, state and local government web resources and services.